createdAt,value
2019-02-19T00:01:16.961Z,101213.12
2019-02-19T00:03:25.862Z,101211.41
2019-02-19T00:05:33.213Z,101208.78
2019-02-19T00:07:40.447Z,101206.22
2019-02-19T00:09:47.393Z,101199.30
2019-02-19T00:11:54.294Z,101203.15
2019-02-19T00:14:02.345Z,101193.22
2019-02-19T00:16:09.675Z,101185.84
2019-02-19T00:18:16.759Z,101183.25
2019-02-19T00:20:23.758Z,101184.12
2019-02-19T00:22:30.932Z,101181.11
2019-02-19T00:24:38.485Z,101177.68
2019-02-19T00:26:49.413Z,101181.53
2019-02-19T00:28:56.229Z,101174.61
2019-02-19T00:31:03.426Z,101175.48
2019-02-19T00:33:10.419Z,101169.89
2019-02-19T00:35:17.373Z,101174.61
2019-02-19T00:37:24.334Z,101175.00
2019-02-19T00:39:31.710Z,101173.26
2019-02-19T00:41:38.795Z,101174.97
2019-02-19T00:43:45.956Z,101172.80
2019-02-19T00:45:54.585Z,101167.20
2019-02-19T00:48:01.585Z,101170.64
2019-02-19T00:50:08.565Z,101165.04
2019-02-19T00:52:17.139Z,101164.56
2019-02-19T00:54:24.649Z,101159.77
2019-02-19T00:56:31.699Z,101157.16
2019-02-19T00:58:39.115Z,101151.10
2019-02-19T01:00:46.159Z,101151.52
2019-02-19T01:02:53.190Z,101148.03
2019-02-19T01:05:03.353Z,101148.03
2019-02-19T01:07:11.011Z,101145.83
2019-02-19T01:09:19.319Z,101147.55
2019-02-19T01:11:26.230Z,101141.47
2019-02-19T01:13:33.256Z,101139.30
2019-02-19T01:15:40.411Z,101134.48
2019-02-19T01:17:47.190Z,101135.32
2019-02-19T01:19:55.622Z,101128.86
2019-02-19T01:22:03.037Z,101129.69
2019-02-19T01:24:09.913Z,101119.31
2019-02-19T01:26:17.309Z,101113.27
2019-02-19T01:28:24.568Z,101108.48
2019-02-19T01:30:31.565Z,101112.39
2019-02-19T01:32:38.382Z,101105.89
2019-02-19T01:34:45.317Z,101100.66
2019-02-19T01:36:52.607Z,101095.00
2019-02-19T01:38:59.627Z,101089.38
2019-02-19T01:41:07.097Z,101087.63
2019-02-19T01:43:13.877Z,101084.17
2019-02-19T01:45:21.410Z,101087.17
2019-02-19T01:47:28.791Z,101082.42
2019-02-19T01:49:36.474Z,101084.94
2019-02-19T01:51:43.505Z,101080.19
2019-02-19T01:53:50.481Z,101074.53
2019-02-19T01:55:57.359Z,101078.41
2019-02-19T01:58:04.127Z,101077.05
2019-02-19T02:00:12.741Z,101075.30
2019-02-19T02:02:19.420Z,101073.58
2019-02-19T02:04:26.955Z,101069.67
2019-02-19T02:06:34.592Z,101067.93
2019-02-19T02:08:41.605Z,101067.05
2019-02-19T02:10:48.450Z,101062.72
2019-02-19T02:12:55.405Z,101063.11
2019-02-19T02:15:02.211Z,101060.48
2019-02-19T02:17:10.278Z,101063.91
2019-02-19T02:19:38.103Z,101053.95
2019-02-19T02:21:45.153Z,101054.33
2019-02-19T02:23:52.830Z,101049.16
2019-02-19T02:25:59.706Z,101045.22
2019-02-19T02:28:06.987Z,101048.25
2019-02-19T02:30:14.095Z,101049.47
2019-02-19T02:32:21.322Z,101045.11
2019-02-19T02:34:28.159Z,101044.27
2019-02-19T02:36:35.198Z,101035.16
2019-02-19T02:38:42.195Z,101036.41
2019-02-19T02:40:49.045Z,101030.82
2019-02-19T02:42:56.191Z,101031.23
2019-02-19T02:45:04.229Z,101025.99
2019-02-19T02:47:11.107Z,101021.20
2019-02-19T02:49:18.098Z,101017.30
2019-02-19T02:51:24.863Z,101018.58
2019-02-19T02:53:32.158Z,101015.12
2019-02-19T02:55:38.905Z,101016.38
2019-02-19T02:57:45.579Z,101017.25
2019-02-19T02:59:52.441Z,101010.80
2019-02-19T03:01:59.532Z,101004.30
2019-02-19T03:04:06.601Z,101012.89
2019-02-19T03:06:30.275Z,101011.59
2019-02-19T03:08:37.040Z,101008.59
2019-02-19T03:10:44.548Z,101005.97
2019-02-19T03:12:51.621Z,101005.09
2019-02-19T03:14:58.542Z,101002.52
2019-02-19T03:17:05.458Z,100991.73
2019-02-19T03:19:12.615Z,100994.73
2019-02-19T03:21:19.636Z,100985.23
2019-02-19T03:23:27.462Z,100989.98
2019-02-19T03:25:34.573Z,100979.66
2019-02-19T03:27:41.255Z,100985.73
2019-02-19T03:29:48.265Z,100984.44
2019-02-19T03:31:56.384Z,100975.40
2019-02-19T03:34:03.311Z,100984.47
2019-02-19T03:36:10.746Z,100984.47
2019-02-19T03:38:18.067Z,100977.11
2019-02-19T03:40:25.292Z,100981.41
2019-02-19T03:42:32.700Z,100979.23
2019-02-19T03:44:39.918Z,100982.66
2019-02-19T03:46:47.769Z,100983.06
2019-02-19T03:48:55.107Z,100979.20
2019-02-19T03:51:02.357Z,100986.07
2019-02-19T03:53:09.642Z,100988.23
2019-02-19T03:55:17.106Z,100989.48
2019-02-19T03:57:26.145Z,100988.61
2019-02-19T03:59:33.363Z,100983.91
2019-02-19T04:01:40.646Z,100981.73
2019-02-19T04:03:47.938Z,100975.74
2019-02-19T04:05:55.076Z,100977.45
2019-02-19T04:08:02.753Z,100972.28
2019-02-19T04:10:11.013Z,100963.28
2019-02-19T04:12:17.959Z,100962.41
2019-02-19T04:14:25.339Z,100957.66
2019-02-19T04:16:32.296Z,100956.76
2019-02-19T04:18:39.375Z,100951.59
2019-02-19T04:20:45.956Z,100955.47
2019-02-19T04:22:52.657Z,100956.75
2019-02-19T04:24:59.803Z,100949.39
2019-02-19T04:27:07.068Z,100949.84
2019-02-19T04:29:15.081Z,100942.09
2019-02-19T04:31:21.834Z,100941.27
2019-02-19T04:33:28.908Z,100936.06
2019-02-19T04:35:36.419Z,100936.44
2019-02-19T04:37:43.622Z,100934.31
2019-02-19T04:39:50.499Z,100931.70
2019-02-19T04:41:57.101Z,100931.70
2019-02-19T04:44:04.493Z,100926.49
2019-02-19T04:46:15.932Z,100924.75
2019-02-19T04:48:22.894Z,100925.62
2019-02-19T04:50:29.587Z,100919.13
2019-02-19T04:52:36.597Z,100916.97
2019-02-19T04:54:43.606Z,100911.34
2019-02-19T04:56:52.312Z,100912.64
2019-02-19T04:58:59.336Z,100912.19
2019-02-19T05:01:06.207Z,100913.02
2019-02-19T05:03:13.158Z,100905.69
2019-02-19T05:05:20.549Z,100908.27
2019-02-19T05:07:27.979Z,100905.69
2019-02-19T05:09:34.897Z,100905.27
2019-02-19T05:11:41.896Z,100903.11
2019-02-19T05:13:49.025Z,100900.11
2019-02-19T05:15:56.426Z,100904.40
2019-02-19T05:18:03.867Z,100903.53
2019-02-19T05:20:12.246Z,100900.95
2019-02-19T05:22:19.028Z,100912.14
2019-02-19T05:24:25.941Z,100913.39
2019-02-19T05:26:32.878Z,100902.20
2019-02-19T05:28:39.715Z,100897.00
2019-02-19T05:30:46.816Z,100892.70
2019-02-19T05:32:53.627Z,100891.42
2019-02-19T05:35:01.596Z,100887.09
2019-02-19T05:37:08.396Z,100892.70
2019-02-19T05:39:15.437Z,100893.12
2019-02-19T05:41:23.009Z,100886.71
2019-02-19T05:43:30.419Z,100887.08
2019-02-19T05:45:37.478Z,100882.11
2019-02-19T05:47:45.000Z,100879.08
2019-02-19T05:49:52.129Z,100881.78
2019-02-19T05:51:59.083Z,100879.80
2019-02-19T05:54:06.040Z,100880.34
2019-02-19T05:56:12.812Z,100878.18
2019-02-19T05:58:20.297Z,100879.77
2019-02-19T06:00:27.997Z,100871.41
2019-02-19T06:02:35.088Z,100870.06
2019-02-19T06:04:42.056Z,100876.58
2019-02-19T06:06:49.037Z,100869.72
2019-02-19T06:08:56.524Z,100870.45
2019-02-19T06:11:04.179Z,100874.67
2019-02-19T06:13:11.418Z,100867.00
2019-02-19T06:15:19.431Z,100865.66
2019-02-19T06:17:26.366Z,100876.97
2019-02-19T06:19:33.950Z,100875.26
2019-02-19T06:21:41.555Z,100870.98
2019-02-19T06:23:49.218Z,100870.14
2019-02-19T06:25:56.356Z,100868.08
2019-02-19T06:28:03.392Z,100876.41
2019-02-19T06:30:13.595Z,100877.37
2019-02-19T06:32:22.343Z,100879.14
2019-02-19T06:34:29.045Z,100879.91
2019-02-19T06:36:36.629Z,100877.67
2019-02-19T06:38:43.527Z,100888.81
2019-02-19T06:40:50.544Z,100884.03
2019-02-19T06:42:57.514Z,100875.44
2019-02-19T06:45:06.401Z,100873.72
2019-02-19T06:47:13.274Z,100875.91
2019-02-19T06:49:20.425Z,100875.95
2019-02-19T06:51:28.654Z,100882.89
2019-02-19T06:53:36.004Z,100882.52
2019-02-19T06:55:43.008Z,100879.98
2019-02-19T06:57:49.896Z,100878.73
2019-02-19T06:59:56.793Z,100877.47
2019-02-19T07:02:22.572Z,100877.11
2019-02-19T07:04:30.834Z,100872.84
2019-02-19T07:06:38.242Z,100874.23
2019-02-19T07:08:44.981Z,100867.37
2019-02-19T07:10:52.765Z,100865.70
2019-02-19T07:12:59.809Z,100866.18
2019-02-19T07:15:09.204Z,100871.80
2019-02-19T07:17:16.219Z,100867.95
2019-02-19T07:19:23.373Z,100860.19
2019-02-19T07:21:30.184Z,100852.01
2019-02-19T07:23:36.761Z,100860.73
2019-02-19T07:25:44.045Z,100859.92
2019-02-19T07:27:51.594Z,100863.44
2019-02-19T07:29:59.991Z,100859.11
2019-02-19T07:32:08.445Z,100850.89
2019-02-19T07:34:16.883Z,100846.13
2019-02-19T07:36:24.713Z,100846.95
2019-02-19T07:38:31.243Z,100852.09
2019-02-19T07:40:38.037Z,100850.80
2019-02-19T07:42:45.013Z,100842.55
2019-02-19T07:44:51.376Z,100842.98
2019-02-19T07:46:58.587Z,100836.47
2019-02-19T07:49:05.575Z,100837.34
2019-02-19T07:51:12.485Z,100853.80
2019-02-19T07:53:24.873Z,100847.70
2019-02-19T07:55:32.953Z,100852.46
2019-02-19T07:57:40.106Z,100845.46
2019-02-19T07:59:46.915Z,100850.92
2019-02-19T08:01:54.642Z,100846.64
2019-02-19T08:04:01.909Z,100838.88
2019-02-19T08:06:09.174Z,100840.98
2019-02-19T08:08:15.976Z,100837.36
2019-02-19T08:10:22.715Z,100829.99
2019-02-19T08:12:30.735Z,100831.67
2019-02-19T08:14:37.515Z,100839.91
2019-02-19T08:16:44.461Z,100833.81
2019-02-19T08:18:51.187Z,100834.11
2019-02-19T08:20:58.125Z,100826.23
2019-02-19T08:23:05.414Z,100822.70
2019-02-19T08:25:12.783Z,100828.72
2019-02-19T08:27:19.472Z,100821.66
2019-02-19T08:29:26.174Z,100818.58
2019-02-19T08:31:33.376Z,100825.99
2019-02-19T08:33:40.186Z,100825.30
2019-02-19T08:35:47.133Z,100829.59
2019-02-19T08:37:54.088Z,100817.33
2019-02-19T08:40:01.160Z,100832.02
2019-02-19T08:42:08.105Z,100831.44
2019-02-19T08:44:15.094Z,100836.22
2019-02-19T08:46:22.005Z,100834.67
2019-02-19T08:48:28.944Z,100823.06
2019-02-19T08:50:36.524Z,100833.87
2019-02-19T08:52:44.315Z,100832.54
2019-02-19T08:54:51.422Z,100838.23
2019-02-19T08:56:58.195Z,100837.17
2019-02-19T08:59:05.082Z,100842.64
2019-02-19T09:01:12.025Z,100838.44
2019-02-19T09:03:21.934Z,100837.17
2019-02-19T09:05:29.125Z,100835.00
2019-02-19T09:07:36.300Z,100833.70
2019-02-19T09:09:43.549Z,100821.43
2019-02-19T09:11:50.594Z,100826.59
2019-02-19T09:13:57.675Z,100826.45
2019-02-19T09:16:04.275Z,100823.73
2019-02-19T09:18:11.614Z,100820.55
2019-02-19T09:20:18.634Z,100809.16
2019-02-19T09:22:26.014Z,100815.59
2019-02-19T09:24:33.242Z,100804.99
2019-02-19T09:26:40.265Z,100805.69
2019-02-19T09:28:50.063Z,100804.27
2019-02-19T09:30:57.007Z,100796.30
2019-02-19T09:33:04.183Z,100806.02
2019-02-19T09:35:13.141Z,100800.12
2019-02-19T09:37:20.162Z,100788.09
2019-02-19T09:39:27.734Z,100787.09
2019-02-19T09:41:35.565Z,100790.39
2019-02-19T09:43:42.366Z,100787.62
2019-02-19T09:45:49.405Z,100790.95
2019-02-19T09:48:01.253Z,100792.95
2019-02-19T09:50:05.265Z,100794.52
2019-02-19T09:52:12.785Z,100790.95
2019-02-19T09:54:19.944Z,100788.25
2019-02-19T09:56:27.204Z,100803.36
2019-02-19T09:58:34.132Z,100792.73
2019-02-19T10:00:42.615Z,100791.21
2019-02-19T10:02:50.512Z,100783.58
2019-02-19T10:04:57.259Z,100791.53
2019-02-19T10:07:03.958Z,100796.98
2019-02-19T10:09:12.181Z,100782.09
2019-02-19T10:11:19.214Z,100775.49
2019-02-19T10:13:26.003Z,100775.72
2019-02-19T10:15:32.773Z,100775.96
2019-02-19T10:17:42.215Z,100778.95
2019-02-19T10:19:48.887Z,100772.31
2019-02-19T10:21:56.274Z,100773.36
2019-02-19T10:24:04.493Z,100768.31
2019-02-19T10:26:14.260Z,100770.73
2019-02-19T10:28:21.896Z,100773.63
2019-02-19T10:30:30.318Z,100775.08
2019-02-19T10:32:38.348Z,100769.58
2019-02-19T10:34:45.502Z,100769.31
2019-02-19T10:36:52.622Z,100766.16
2019-02-19T10:39:02.172Z,100766.48
2019-02-19T10:41:09.754Z,100758.85
2019-02-19T10:43:17.808Z,100756.40
2019-02-19T10:45:27.287Z,100754.72
2019-02-19T10:47:35.947Z,100756.45
2019-02-19T10:49:42.702Z,100756.19
2019-02-19T10:51:50.474Z,100754.59
2019-02-19T10:53:57.473Z,100751.33
2019-02-19T10:56:05.132Z,100755.58
2019-02-19T10:58:22.260Z,100752.92
2019-02-19T11:00:23.963Z,100760.25
2019-02-19T11:02:31.184Z,100758.33
2019-02-19T11:04:40.044Z,100751.52
2019-02-19T11:06:47.295Z,100745.72
2019-02-19T11:08:54.315Z,100746.27
2019-02-19T11:11:01.556Z,100751.73
2019-02-19T11:13:09.856Z,100745.81
2019-02-19T11:15:17.599Z,100747.41
2019-02-19T11:17:25.811Z,100752.56
2019-02-19T11:19:32.679Z,100744.42
2019-02-19T11:21:39.924Z,100747.19
2019-02-19T11:23:48.410Z,100743.66
2019-02-19T11:25:55.255Z,100744.56
2019-02-19T11:28:02.567Z,100733.36
2019-02-19T11:30:16.017Z,100740.73
2019-02-19T11:32:22.822Z,100740.07
2019-02-19T11:34:31.404Z,100737.79
2019-02-19T11:36:40.400Z,100740.41
2019-02-19T11:38:47.145Z,100739.27
2019-02-19T11:40:54.055Z,100730.84
2019-02-19T11:43:00.922Z,100736.37
2019-02-19T11:45:15.294Z,100733.19
2019-02-19T11:47:26.615Z,100731.08
2019-02-19T11:49:31.214Z,100732.14
2019-02-19T11:51:38.394Z,100726.48
2019-02-19T11:53:45.153Z,100728.80
2019-02-19T11:55:53.834Z,100726.96
2019-02-19T11:58:01.062Z,100721.45
2019-02-19T12:00:17.042Z,100715.79
2019-02-19T12:02:32.514Z,100718.16
2019-02-19T12:04:34.581Z,100720.98
2019-02-19T12:06:45.040Z,100715.50
2019-02-19T12:08:51.950Z,100719.03
2019-02-19T12:10:59.878Z,100720.58
2019-02-19T12:13:07.344Z,100718.39
2019-02-19T12:15:14.749Z,100712.80
2019-02-19T12:17:21.444Z,100713.09
2019-02-19T12:19:28.091Z,100713.14
2019-02-19T12:21:36.608Z,100713.30
2019-02-19T12:23:43.497Z,100718.33
2019-02-19T12:25:51.813Z,100711.08
2019-02-19T12:28:00.248Z,100714.05
2019-02-19T12:30:19.503Z,100711.48
2019-02-19T12:32:27.886Z,100711.87
2019-02-19T12:34:34.579Z,100711.37
2019-02-19T12:36:41.594Z,100711.30
2019-02-19T12:38:48.783Z,100708.56
2019-02-19T12:40:55.614Z,100708.56
2019-02-19T12:43:02.514Z,100706.16
2019-02-19T12:45:14.532Z,100708.79
2019-02-19T12:47:21.802Z,100711.37
2019-02-19T12:49:28.956Z,100705.94
2019-02-19T12:51:36.211Z,100706.76
2019-02-19T12:53:44.792Z,100711.19
2019-02-19T12:55:51.836Z,100706.61
2019-02-19T12:57:58.609Z,100704.05
2019-02-19T13:00:07.528Z,100697.97
2019-02-19T13:02:14.473Z,100699.77
2019-02-19T13:04:21.355Z,100705.03
2019-02-19T13:06:28.594Z,100695.08
2019-02-19T13:08:36.624Z,100705.94
2019-02-19T13:10:43.479Z,100699.09
2019-02-19T13:12:50.818Z,100698.98
2019-02-19T13:14:57.701Z,100704.84
2019-02-19T13:17:05.949Z,100698.95
2019-02-19T13:19:12.485Z,100705.18
2019-02-19T13:21:19.392Z,100705.03
2019-02-19T13:23:26.157Z,100708.00
2019-02-19T13:25:33.450Z,100711.87
2019-02-19T13:27:40.882Z,100706.88
2019-02-19T13:29:48.142Z,100714.64
2019-02-19T13:31:54.986Z,100710.55
2019-02-19T13:34:02.085Z,100716.79
2019-02-19T13:36:10.603Z,100716.00
2019-02-19T13:38:19.045Z,100716.60
2019-02-19T13:40:26.013Z,100725.02
2019-02-19T13:42:33.075Z,100728.09
2019-02-19T13:44:40.584Z,100732.03
2019-02-19T13:46:47.705Z,100726.13
2019-02-19T13:48:54.470Z,100726.24
2019-02-19T13:51:01.834Z,100721.95
2019-02-19T13:53:16.141Z,100722.63
2019-02-19T13:55:27.844Z,100726.67
2019-02-19T13:57:34.681Z,100726.71
2019-02-19T13:59:42.535Z,100735.01
2019-02-19T14:01:50.311Z,100740.20
2019-02-19T14:03:57.391Z,100739.70
2019-02-19T14:06:04.435Z,100741.05
2019-02-19T14:08:14.589Z,100736.33
2019-02-19T14:10:20.235Z,100741.61
2019-02-19T14:12:27.285Z,100742.44
2019-02-19T14:14:41.835Z,100733.13
2019-02-19T14:16:52.102Z,100731.38
2019-02-19T14:19:01.014Z,100736.67
2019-02-19T14:21:13.733Z,100742.55
2019-02-19T14:23:24.009Z,100737.99
2019-02-19T14:25:32.524Z,100739.55
2019-02-19T14:27:46.925Z,100744.02
2019-02-19T14:30:12.137Z,100742.84
2019-02-19T14:32:26.031Z,100744.32
2019-02-19T14:34:52.214Z,100744.42
2019-02-19T14:37:06.873Z,100749.36
2019-02-19T14:39:21.464Z,100748.64
2019-02-19T14:41:30.345Z,100748.91
2019-02-19T14:43:54.105Z,100751.73
2019-02-19T14:46:10.022Z,100748.38
2019-02-19T14:48:32.954Z,100751.64
2019-02-19T14:50:59.480Z,100755.36
2019-02-19T14:53:24.183Z,100761.73
2019-02-19T14:55:49.355Z,100767.65
2019-02-19T14:58:01.193Z,100764.31
2019-02-19T15:00:28.434Z,100758.39
2019-02-19T15:02:36.802Z,100760.30
2019-02-19T15:07:19.875Z,100769.14
2019-02-19T15:09:44.473Z,100770.27
2019-02-19T15:11:52.955Z,100779.53
2019-02-19T15:13:59.499Z,100781.47
2019-02-19T15:16:25.973Z,100782.44
2019-02-19T15:18:35.193Z,100777.38
2019-02-19T15:20:49.776Z,100776.17
2019-02-19T15:23:02.632Z,100782.95
2019-02-19T15:25:27.582Z,100783.09
2019-02-19T15:27:39.161Z,100779.72
2019-02-19T15:29:52.385Z,100782.39
2019-02-19T15:32:09.989Z,100782.95
2019-02-19T15:34:36.485Z,100786.92
2019-02-19T15:36:43.710Z,100784.00
2019-02-19T15:38:55.357Z,100778.34
2019-02-19T15:41:14.365Z,100785.84
2019-02-19T15:43:35.207Z,100781.55
2019-02-19T15:45:42.371Z,100790.81
2019-02-19T15:48:01.720Z,100782.67
2019-02-19T15:50:28.889Z,100779.27
2019-02-19T15:52:41.802Z,100787.20
2019-02-19T15:57:28.322Z,100795.25
2019-02-19T15:59:40.309Z,100786.22
2019-02-19T16:01:52.273Z,100784.12
2019-02-19T16:04:07.498Z,100781.58
2019-02-19T16:06:28.405Z,100793.81
2019-02-19T16:08:53.774Z,100795.61
2019-02-19T16:11:02.666Z,100794.83
2019-02-19T16:13:11.705Z,100792.74
2019-02-19T16:15:29.988Z,100801.09
2019-02-19T16:17:38.798Z,100794.20
2019-02-19T16:19:56.553Z,100801.70
2019-02-19T16:22:09.947Z,100803.13
2019-02-19T16:24:24.797Z,100802.36
2019-02-19T16:26:44.906Z,100807.23
2019-02-19T16:29:06.993Z,100804.67
2019-02-19T16:31:24.752Z,100792.98
2019-02-19T16:33:35.609Z,100806.13
2019-02-19T16:35:48.036Z,100815.30
2019-02-19T16:37:56.741Z,100814.48
2019-02-19T16:40:08.628Z,100819.33
2019-02-19T16:42:34.599Z,100821.19
2019-02-19T16:44:42.044Z,100824.70
2019-02-19T16:46:53.963Z,100829.19
2019-02-19T16:49:12.189Z,100829.20
2019-02-19T16:51:27.049Z,100831.42
2019-02-19T16:53:45.581Z,100834.05
2019-02-19T16:56:16.587Z,100833.23
2019-02-19T16:58:31.316Z,100829.77
2019-02-19T17:00:40.488Z,100842.47
2019-02-19T17:02:58.536Z,100839.12
2019-02-19T17:05:18.817Z,100844.84
2019-02-19T17:07:36.499Z,100837.51
2019-02-19T17:09:45.348Z,100844.55
2019-02-19T17:12:02.997Z,100847.66
2019-02-19T17:14:11.936Z,100843.75
2019-02-19T17:16:20.809Z,100849.38
2019-02-19T17:18:45.433Z,100846.78
2019-02-19T17:20:57.057Z,100849.45
2019-02-19T17:23:11.693Z,100854.67
2019-02-19T17:25:18.869Z,100846.34
2019-02-19T17:27:30.879Z,100843.73
2019-02-19T17:29:46.850Z,100842.00
2019-02-19T17:32:05.930Z,100851.14
2019-02-19T17:34:21.147Z,100845.16
2019-02-19T17:36:43.267Z,100846.98
2019-02-19T17:38:50.223Z,100843.23
2019-02-19T17:41:05.179Z,100849.88
2019-02-19T17:43:13.929Z,100854.41
2019-02-19T17:45:23.071Z,100855.78
2019-02-19T17:47:31.929Z,100854.14
2019-02-19T17:49:59.326Z,100850.72
2019-02-19T17:52:08.077Z,100850.83
2019-02-19T17:54:20.118Z,100852.20
2019-02-19T17:56:32.609Z,100848.39
2019-02-19T17:58:57.966Z,100854.55
2019-02-19T18:01:09.723Z,100856.45
2019-02-19T18:03:16.739Z,100853.55
2019-02-19T18:05:28.096Z,100847.08
2019-02-19T18:07:40.268Z,100848.92
2019-02-19T18:09:49.308Z,100848.16
2019-02-19T18:11:58.088Z,100847.43
2019-02-19T18:14:06.800Z,100838.91
2019-02-19T18:16:16.401Z,100841.66
2019-02-19T18:18:34.891Z,100845.70
2019-02-19T18:20:47.420Z,100845.80
2019-02-19T18:22:51.981Z,100839.84
2019-02-19T18:24:59.153Z,100837.36
2019-02-19T18:27:06.522Z,100828.34
2019-02-19T18:29:14.670Z,100832.34
2019-02-19T18:31:21.982Z,100832.42
2019-02-19T18:33:29.131Z,100828.59
2019-02-19T18:35:36.372Z,100824.31
2019-02-19T18:37:43.850Z,100827.00
2019-02-19T18:39:51.770Z,100831.84
2019-02-19T18:41:59.107Z,100828.36
2019-02-19T18:44:06.392Z,100824.42
2019-02-19T18:46:15.585Z,100827.50
2019-02-19T18:48:22.886Z,100830.54
2019-02-19T18:50:30.616Z,100824.56
2019-02-19T18:52:38.413Z,100828.06
2019-02-19T18:54:46.481Z,100824.63
2019-02-19T18:56:54.268Z,100818.15
2019-02-19T18:59:01.752Z,100820.35
2019-02-19T19:01:09.977Z,100819.88
2019-02-19T19:03:17.309Z,100821.16
2019-02-19T19:05:25.312Z,100822.95
2019-02-19T19:07:33.479Z,100814.31
2019-02-19T19:09:40.882Z,100816.08
2019-02-19T19:11:48.262Z,100814.77
2019-02-19T19:13:55.538Z,100815.23
2019-02-19T19:16:03.839Z,100817.00
2019-02-19T19:18:11.310Z,100825.28
2019-02-19T19:20:18.621Z,100820.97
2019-02-19T19:22:26.351Z,100823.19
2019-02-19T19:24:34.244Z,100828.40
2019-02-19T19:26:41.989Z,100835.31
2019-02-19T19:28:49.421Z,100838.75
2019-02-19T19:30:57.119Z,100835.72
2019-02-19T19:33:04.781Z,100838.32
2019-02-19T19:35:14.122Z,100840.48
2019-02-19T19:37:21.943Z,100839.22
2019-02-19T19:39:30.448Z,100843.58
2019-02-19T19:41:37.721Z,100840.16
2019-02-19T19:43:47.597Z,100843.69
2019-02-19T19:45:55.050Z,100843.70
2019-02-19T19:48:02.626Z,100842.84
2019-02-19T19:50:14.392Z,100844.16
2019-02-19T19:52:21.901Z,100852.84
2019-02-19T19:54:29.591Z,100848.51
2019-02-19T19:56:37.041Z,100856.28
2019-02-19T19:58:44.821Z,100847.66
2019-02-19T20:00:52.721Z,100851.08
2019-02-19T20:03:00.922Z,100848.05
2019-02-19T20:05:11.140Z,100841.08
2019-02-19T20:07:18.572Z,100841.92
2019-02-19T20:09:25.842Z,100841.91
2019-02-19T20:11:33.291Z,100848.73
2019-02-19T20:13:40.765Z,100845.20
2019-02-19T20:15:48.664Z,100848.13
2019-02-19T20:17:56.163Z,100845.45
2019-02-19T20:20:03.622Z,100844.09
2019-02-19T20:22:13.004Z,100841.86
2019-02-19T20:24:21.711Z,100842.66
2019-02-19T20:26:29.345Z,100846.97
2019-02-19T20:28:36.943Z,100836.52
2019-02-19T20:30:44.960Z,100842.12
2019-02-19T20:32:52.613Z,100839.02
2019-02-19T20:35:00.257Z,100835.94
2019-02-19T20:37:07.707Z,100830.69
2019-02-19T20:39:16.866Z,100834.16
2019-02-19T20:41:24.375Z,100833.28
2019-02-19T20:43:33.346Z,100830.20
2019-02-19T20:45:42.647Z,100824.56
2019-02-19T20:47:51.146Z,100824.16
2019-02-19T20:50:00.406Z,100825.87
2019-02-19T20:52:08.226Z,100822.39
2019-02-19T20:54:16.230Z,100821.92
2019-02-19T20:56:23.926Z,100824.52
2019-02-19T20:58:33.890Z,100819.27
2019-02-19T21:00:40.815Z,100820.97
2019-02-19T21:02:49.916Z,100819.19
2019-02-19T21:04:57.865Z,100827.36
2019-02-19T21:07:05.686Z,100819.97
2019-02-19T21:09:13.123Z,100818.59
2019-02-19T21:11:20.875Z,100815.98
2019-02-19T21:13:28.633Z,100818.59
2019-02-19T21:15:36.016Z,100821.59
2019-02-19T21:17:43.235Z,100819.37
2019-02-19T21:19:50.785Z,100818.03
2019-02-19T21:21:58.405Z,100815.45
2019-02-19T21:24:06.623Z,100827.23
2019-02-19T21:26:13.845Z,100820.24
2019-02-19T21:28:22.476Z,100823.32
2019-02-19T21:30:30.313Z,100817.67
2019-02-19T21:32:38.745Z,100813.81
2019-02-19T21:34:46.206Z,100815.11
2019-02-19T21:36:53.602Z,100816.89
2019-02-19T21:39:00.875Z,100811.68
2019-02-19T21:41:10.782Z,100816.41
2019-02-19T21:43:18.276Z,100818.55
2019-02-19T21:45:25.686Z,100824.16
2019-02-19T21:47:33.625Z,100817.20
2019-02-19T21:49:41.365Z,100817.16
2019-02-19T21:51:54.218Z,100817.16
2019-02-19T21:53:57.805Z,100814.50
2019-02-19T21:56:05.095Z,100813.16
2019-02-19T21:58:12.675Z,100808.81
2019-02-19T22:00:21.044Z,100809.68
2019-02-19T22:02:29.032Z,100810.11
2019-02-19T22:04:36.606Z,100817.46
2019-02-19T22:06:43.664Z,100818.80
2019-02-19T22:08:50.535Z,100816.24
2019-02-19T22:10:58.105Z,100819.72
2019-02-19T22:13:05.608Z,100817.94
2019-02-19T22:15:16.853Z,100813.59
2019-02-19T22:17:23.659Z,100811.42
2019-02-19T22:19:30.875Z,100811.84
2019-02-19T22:21:39.935Z,100811.85
2019-02-19T22:23:47.234Z,100811.42
2019-02-19T22:25:54.452Z,100808.80
2019-02-19T22:28:01.505Z,100814.45
2019-02-19T22:30:10.276Z,100815.33
2019-02-19T22:32:18.484Z,100817.50
2019-02-19T22:34:26.775Z,100824.45
2019-02-19T22:36:34.027Z,100824.50
2019-02-19T22:38:40.708Z,100823.67
2019-02-19T22:40:55.021Z,100825.80
2019-02-19T22:42:56.786Z,100818.46
2019-02-19T22:45:03.892Z,100817.63
2019-02-19T22:47:10.855Z,100818.98
2019-02-19T22:49:17.807Z,100817.76
2019-02-19T22:51:24.803Z,100825.19
2019-02-19T22:53:36.398Z,100817.38
2019-02-19T22:55:51.614Z,100813.94
2019-02-19T22:57:58.327Z,100814.45
2019-02-19T23:00:10.441Z,100819.31
2019-02-19T23:02:20.388Z,100812.87
2019-02-19T23:04:29.281Z,100815.05
2019-02-19T23:06:36.603Z,100814.22
2019-02-19T23:08:43.720Z,100820.70
2019-02-19T23:10:52.040Z,100822.00
2019-02-19T23:13:00.203Z,100822.00
2019-02-19T23:15:07.993Z,100825.47
2019-02-19T23:17:15.676Z,100821.17
2019-02-19T23:19:23.049Z,100822.91
2019-02-19T23:21:29.939Z,100831.12
2019-02-19T23:23:37.377Z,100831.98
2019-02-19T23:25:44.192Z,100833.64
2019-02-19T23:27:51.489Z,100841.86
2019-02-19T23:29:58.408Z,100846.16
2019-02-19T23:32:05.939Z,100842.21
2019-02-19T23:34:13.734Z,100846.56
2019-02-19T23:36:22.660Z,100845.26
2019-02-19T23:38:29.666Z,100847.91
2019-02-19T23:40:36.812Z,100841.86
2019-02-19T23:42:43.806Z,100843.59
2019-02-19T23:44:50.682Z,100846.64
2019-02-19T23:46:58.022Z,100849.24
2019-02-19T23:49:05.078Z,100849.20
2019-02-19T23:51:12.038Z,100844.83
2019-02-19T23:53:18.699Z,100843.99
2019-02-19T23:55:26.264Z,100846.13
2019-02-19T23:57:33.617Z,100847.86
2019-02-19T23:59:40.945Z,100842.65
